Willshire, Ohio
Current Conditions -  °F | °C
As of 9:14 PM on Sunday 25 Jan 2015 (Local Time) from KFWA Reporting Station
Light Snow Light Snow  
Wind Chill:   Ceiling: 4400
Heat Index: 20°   Visibility: 3mi
Dew Point: 15°   Wind: 20mph
Humidity: 81%   Direction: 40°NE
Pressure: 29.89"   Gusts: NA
Location:  40.75°N, 84.79°W
Report Text: KFWA 260214Z 04017KT 3SM -SN BR OVC044 M07/M09 A2989 RMK AO2 P0000 T10671094 $
Loading
Personal Weather Stations






























Interactive Weather Map New forecast layout! Learn more

10-Day Weather Forecast

Advertisements
Track Severe Weather on mobile